Time;durP1;ratioP1;P1;durP2;ratioP2;P2;SDS_P1;SDS_P2;PMS_P1;PMS_P2;Temp;Humidity;BMP_temperature;BMP_pressure;BME280_temperature;BME280_humidity;BME280_pressure;Samples;Min_cycle;Max_cycle;Signal;HPM_P1;HPM_P2
2021/09/23 00:00:52;;;;;;;2.35;1.65;;;19.50;49.90;;;;;;4097219;28;20826;-51
2021/09/23 00:04:57;;;;;;;3.00;1.70;;;19.50;50.20;;;;;;4100024;28;21018;-58
2021/09/23 00:07:00;;;;;;;3.33;1.70;;;19.50;50.10;;;;;;4097792;28;20065;-56
2021/09/23 00:09:05;;;;;;;3.38;1.65;;;19.40;50.00;;;;;;4098093;28;20543;-58
2021/09/23 00:11:08;;;;;;;4.10;1.95;;;19.40;50.10;;;;;;4096696;28;20627;-53
2021/09/23 00:13:11;;;;;;;2.83;1.90;;;19.40;50.10;;;;;;4105693;28;20049;-59
2021/09/23 00:15:15;;;;;;;2.25;1.60;;;19.40;50.20;;;;;;4104538;28;20262;-59
2021/09/23 00:17:17;;;;;;;2.95;1.67;;;19.40;50.10;;;;;;4105504;28;20049;-59
2021/09/23 00:19:19;;;;;;;2.38;1.50;;;19.40;50.20;;;;;;4106795;28;20187;-56
2021/09/23 00:21:22;;;;;;;2.30;1.60;;;19.40;50.30;;;;;;4084361;28;20243;-55
2021/09/23 00:23:24;;;;;;;2.85;1.50;;;19.40;50.30;;;;;;4086491;28;20068;-59
2021/09/23 00:25:27;;;;;;;4.10;1.75;;;19.30;50.40;;;;;;4085346;28;20077;-53
2021/09/23 00:27:29;;;;;;;3.15;1.90;;;19.40;50.90;;;;;;4088183;28;20378;-58
2021/09/23 00:29:31;;;;;;;1.77;1.30;;;19.30;51.10;;;;;;4108910;28;21471;-57
2021/09/23 00:31:34;;;;;;;1.80;1.52;;;19.30;51.30;;;;;;4104628;28;20470;-58
2021/09/23 00:33:36;;;;;;;2.20;1.50;;;19.30;51.50;;;;;;4086796;28;22097;-59
2021/09/23 00:35:39;;;;;;;2.35;1.40;;;19.40;51.40;;;;;;4085811;28;20100;-59
2021/09/23 00:37:41;;;;;;;3.60;1.73;;;19.30;51.40;;;;;;4103684;28;20068;-55
2021/09/23 00:39:43;;;;;;;2.53;1.55;;;19.40;51.60;;;;;;4103445;28;20733;-57
2021/09/23 00:41:45;;;;;;;2.83;1.60;;;19.30;51.70;;;;;;4083638;28;20081;-49
2021/09/23 00:43:48;;;;;;;5.07;1.75;;;19.40;51.80;;;;;;4104273;28;20255;-50
2021/09/23 00:45:50;;;;;;;12.45;2.10;;;19.40;52.10;;;;;;4077606;28;20057;-57
2021/09/23 00:47:52;;;;;;;4.38;1.70;;;19.40;52.10;;;;;;4106771;28;20067;-49
2021/09/23 00:49:55;;;;;;;2.28;1.40;;;19.40;52.10;;;;;;4101399;28;20052;-53
2021/09/23 00:51:57;;;;;;;5.53;2.22;;;19.50;52.20;;;;;;4104038;28;21226;-56
2021/09/23 00:54:01;;;;;;;6.53;1.60;;;19.50;52.20;;;;;;4103702;28;20420;-56
2021/09/23 00:56:03;;;;;;;3.55;1.40;;;19.60;52.20;;;;;;4086443;28;20064;-54
2021/09/23 00:58:05;;;;;;;2.27;1.37;;;19.60;52.20;;;;;;4103272;28;20167;-53
2021/09/23 01:00:12;;;;;;;2.70;1.40;;;19.60;52.20;;;;;;4081419;28;20402;-56
2021/09/23 01:02:14;;;;;;;1.95;1.45;;;19.60;52.10;;;;;;4101472;28;20509;-50
2021/09/23 01:04:17;;;;;;;3.25;1.70;;;19.70;52.30;;;;;;4103214;28;20075;-55
2021/09/23 01:06:19;;;;;;;2.85;1.67;;;19.70;52.20;;;;;;4087614;28;20064;-56
2021/09/23 01:08:22;;;;;;;2.70;1.23;;;19.70;52.10;;;;;;4086146;28;20053;-54
2021/09/23 01:10:24;;;;;;;1.65;1.35;;;19.80;52.20;;;;;;4105811;28;20291;-54
2021/09/23 01:12:27;;;;;;;1.70;1.50;;;19.80;52.20;;;;;;4102665;28;20733;-53
2021/09/23 01:14:29;;;;;;;2.85;1.40;;;19.80;52.20;;;;;;4103022;28;20069;-55
2021/09/23 01:16:31;;;;;;;2.88;1.77;;;19.80;52.10;;;;;;4084169;28;20150;-54
2021/09/23 01:18:34;;;;;;;3.40;1.70;;;19.80;52.10;;;;;;4085678;28;20049;-51
2021/09/23 01:20:36;;;;;;;4.47;1.50;;;19.80;52.20;;;;;;4104863;28;21291;-56
2021/09/23 01:22:38;;;;;;;2.75;1.45;;;19.90;52.30;;;;;;4103704;28;20519;-47
2021/09/23 01:24:41;;;;;;;3.08;1.63;;;19.90;52.20;;;;;;4084474;28;20765;-54
2021/09/23 01:26:48;;;;;;;1.75;1.40;;;19.90;52.30;;;;;;4085917;28;20049;-54
2021/09/23 01:28:50;;;;;;;1.80;1.33;;;19.90;52.20;;;;;;4101970;28;20140;-51
2021/09/23 01:30:52;;;;;;;1.52;1.13;;;20.00;52.30;;;;;;4104245;28;20456;-56
2021/09/23 01:32:54;;;;;;;2.90;1.60;;;19.90;52.20;;;;;;4104106;28;20077;-54
2021/09/23 01:34:57;;;;;;;2.50;1.50;;;20.00;52.40;;;;;;4103244;28;20128;-54
2021/09/23 01:36:59;;;;;;;1.83;1.35;;;20.00;52.20;;;;;;4086121;28;20041;-56
2021/09/23 01:39:02;;;;;;;1.88;1.48;;;20.00;52.20;;;;;;4103889;28;21891;-57
2021/09/23 01:41:04;;;;;;;2.17;1.63;;;20.10;52.10;;;;;;4086433;28;20693;-52
2021/09/23 01:43:06;;;;;;;1.90;1.50;;;20.10;52.10;;;;;;4084640;28;20173;-52
2021/09/23 01:45:13;;;;;;;2.03;1.40;;;20.10;52.20;;;;;;4084121;28;20132;-53
2021/09/23 01:47:15;;;;;;;1.65;1.52;;;20.10;52.30;;;;;;4085356;28;20109;-55
2021/09/23 01:49:18;;;;;;;2.92;1.50;;;20.20;52.20;;;;;;4104711;28;20611;-55
2021/09/23 01:51:20;;;;;;;1.95;1.20;;;20.20;52.30;;;;;;4103598;28;20129;-55
2021/09/23 01:53:23;;;;;;;2.72;1.30;;;20.20;52.40;;;;;;4086246;28;20069;-56
2021/09/23 01:55:25;;;;;;;1.65;1.40;;;20.20;52.40;;;;;;4104495;28;20049;-53
2021/09/23 01:57:27;;;;;;;1.98;1.35;;;20.30;52.40;;;;;;4073452;28;21711;-53
2021/09/23 01:59:29;;;;;;;2.08;1.40;;;20.30;52.50;;;;;;4105758;28;20068;-53
2021/09/23 02:02:21;;;;;;;1.70;1.38;;;20.30;51.90;;;;;;4141342;27;21230;-54
2021/09/23 02:04:23;;;;;;;1.42;1.20;;;20.30;52.60;;;;;;4143221;28;21497;-48
2021/09/23 02:06:25;;;;;;;2.33;1.23;;;20.40;52.40;;;;;;4145742;28;21596;-55
2021/09/23 02:08:28;;;;;;;2.77;1.40;;;20.40;52.40;;;;;;4148509;28;20052;-57
2021/09/23 02:10:30;;;;;;;2.63;1.42;;;20.40;52.10;;;;;;4144525;28;20044;-56
2021/09/23 02:12:33;;;;;;;2.17;1.60;;;20.40;52.40;;;;;;4126581;28;20467;-54
2021/09/23 02:14:35;;;;;;;2.33;1.50;;;20.40;51.60;;;;;;4126530;28;20059;-54
2021/09/23 02:16:37;;;;;;;1.73;1.38;;;20.50;51.50;;;;;;4124531;28;21263;-51
2021/09/23 02:18:39;;;;;;;1.65;1.30;;;20.40;51.30;;;;;;4124537;28;20079;-49
2021/09/23 02:20:43;;;;;;;3.85;1.73;;;20.50;51.20;;;;;;4122045;28;20062;-50
2021/09/23 02:22:45;;;;;;;2.92;1.70;;;20.50;51.10;;;;;;4124476;28;20419;-58
2021/09/23 02:24:48;;;;;;;2.80;1.50;;;20.50;50.90;;;;;;4123150;28;22056;-52
2021/09/23 02:26:50;;;;;;;5.38;1.95;;;20.50;50.80;;;;;;4123745;28;20049;-49
2021/09/23 02:28:56;;;;;;;1.95;1.35;;;20.50;50.80;;;;;;4124066;28;20097;-48
2021/09/23 02:30:58;;;;;;;1.77;1.25;;;20.50;50.60;;;;;;4124375;28;20053;-50
2021/09/23 02:33:00;;;;;;;3.67;1.80;;;20.50;50.50;;;;;;4123146;28;20052;-47
2021/09/23 02:35:06;;;;;;;3.20;1.93;;;20.50;50.40;;;;;;4122743;28;20524;-54
2021/09/23 02:37:09;;;;;;;5.35;1.98;;;20.50;50.20;;;;;;4120192;28;20324;-55
2021/09/23 02:39:12;;;;;;;4.82;2.10;;;20.50;50.30;;;;;;4117741;28;20053;-56
2021/09/23 02:41:14;;;;;;;3.65;1.73;;;20.60;50.70;;;;;;4117817;28;21303;-55
2021/09/23 02:43:17;;;;;;;5.57;1.90;;;20.60;50.70;;;;;;4113690;28;20076;-56
2021/09/23 02:45:19;;;;;;;5.00;1.90;;;20.60;50.80;;;;;;4100858;28;20749;-54
2021/09/23 02:47:23;;;;;;;4.38;1.67;;;20.60;51.10;;;;;;4116483;28;20094;-59
2021/09/23 02:49:25;;;;;;;3.10;1.83;;;20.60;51.10;;;;;;4146250;28;20056;-58
2021/09/23 02:51:27;;;;;;;3.70;1.48;;;20.60;51.10;;;;;;4115457;28;20103;-58
2021/09/23 02:53:30;;;;;;;4.93;1.88;;;20.60;51.10;;;;;;4115743;28;20049;-53
2021/09/23 02:55:32;;;;;;;4.50;1.98;;;20.70;51.10;;;;;;4116744;28;20726;-53
2021/09/23 02:57:35;;;;;;;3.95;1.90;;;20.70;51.10;;;;;;4114985;28;20202;-58
2021/09/23 02:59:38;;;;;;;2.83;1.60;;;20.70;51.20;;;;;;4115997;28;20057;-55
2021/09/23 03:01:41;;;;;;;4.32;1.80;;;20.70;51.40;;;;;;4144601;28;20602;-59
2021/09/23 03:03:44;;;;;;;2.73;1.70;;;20.70;51.50;;;;;;4097451;28;21470;-55
2021/09/23 03:05:46;;;;;;;3.33;1.52;;;20.70;51.40;;;;;;4112498;28;20321;-57
2021/09/23 03:07:49;;;;;;;2.70;1.58;;;20.80;51.50;;;;;;4115065;28;20059;-55
2021/09/23 03:09:51;;;;;;;3.75;1.92;;;20.80;51.60;;;;;;4100863;28;20060;-54
2021/09/23 03:11:54;;;;;;;5.72;2.20;;;20.80;51.60;;;;;;4115367;28;20055;-56
2021/09/23 03:13:56;;;;;;;3.28;1.90;;;20.80;51.70;;;;;;4105205;28;20239;-57
2021/09/23 03:16:00;;;;;;;3.10;1.50;;;20.80;51.60;;;;;;4106335;28;20068;-51
2021/09/23 03:18:02;;;;;;;;;;;20.90;52.00;;;;;;4106689;28;20057;-56
2021/09/23 03:20:04;;;;;;;1.40;1.27;;;20.90;51.80;;;;;;4109907;28;20219;-55
2021/09/23 03:22:07;;;;;;;2.80;1.75;;;20.90;51.80;;;;;;4107524;28;20111;-53
2021/09/23 03:24:10;;;;;;;1.67;1.45;;;21.00;52.00;;;;;;4108502;28;20134;-56
2021/09/23 03:26:12;;;;;;;3.95;1.80;;;21.00;51.90;;;;;;4106984;28;20107;-53
2021/09/23 03:28:15;;;;;;;4.43;2.03;;;21.00;51.90;;;;;;4108305;28;20061;-58
2021/09/23 03:30:17;;;;;;;2.97;1.73;;;21.10;52.20;;;;;;4109062;28;20045;-52
2021/09/23 03:32:20;;;;;;;4.20;1.73;;;21.10;52.00;;;;;;4110170;28;20052;-55
2021/09/23 03:34:22;;;;;;;2.50;1.40;;;21.10;52.00;;;;;;4109421;28;20150;-55
2021/09/23 03:36:24;;;;;;;4.20;2.03;;;21.10;51.90;;;;;;4107408;28;20049;-53
2021/09/23 03:38:27;;;;;;;4.63;1.80;;;21.20;51.80;;;;;;4110961;28;20124;-55
2021/09/23 03:40:29;;;;;;;4.07;1.88;;;21.20;52.70;;;;;;4109450;28;20102;-55
2021/09/23 03:42:32;;;;;;;4.22;1.80;;;21.30;52.00;;;;;;4109006;28;20064;-54
2021/09/23 03:44:34;;;;;;;3.20;1.67;;;21.30;52.00;;;;;;4107254;28;20049;-57
2021/09/23 03:46:36;;;;;;;4.43;1.70;;;21.30;51.90;;;;;;4106296;28;20421;-55
2021/09/23 03:48:39;;;;;;;4.63;1.80;;;21.40;51.80;;;;;;4107735;28;20188;-54
2021/09/23 03:50:41;;;;;;;2.40;1.55;;;21.40;51.90;;;;;;4107975;28;20056;-55
2021/09/23 03:52:44;;;;;;;3.67;1.50;;;21.50;52.00;;;;;;4107665;28;20063;-56
2021/09/23 03:54:46;;;;;;;5.90;1.83;;;21.50;51.80;;;;;;4107579;28;20048;-57
2021/09/23 03:56:48;;;;;;;2.92;1.50;;;21.60;51.70;;;;;;4107298;28;20318;-55
2021/09/23 03:58:51;;;;;;;3.03;1.70;;;21.60;51.70;;;;;;4109256;28;20061;-55
2021/09/23 04:00:53;;;;;;;3.45;1.90;;;21.70;51.80;;;;;;4107971;28;20061;-58
2021/09/23 04:02:55;;;;;;;2.10;1.50;;;21.80;52.00;;;;;;4109703;28;20053;-57
2021/09/23 04:04:58;;;;;;;4.05;1.55;;;21.80;51.70;;;;;;4106845;28;20056;-58
2021/09/23 04:07:00;;;;;;;2.53;1.45;;;;;;;;;;4109639;28;20060;-59
2021/09/23 04:09:02;;;;;;;2.40;1.60;;;;;;;;;;4108350;28;20579;-59
2021/09/23 04:11:04;;;;;;;4.57;1.45;;;21.90;51.60;;;;;;4108984;28;20632;-56
2021/09/23 04:13:06;;;;;;;3.47;1.52;;;22.10;52.30;;;;;;4109491;28;20180;-54
2021/09/23 04:15:10;;;;;;;2.22;1.40;;;22.10;51.60;;;;;;4108608;28;20045;-56
2021/09/23 04:17:12;;;;;;;;;;;22.20;51.50;;;;;;4109925;28;20100;-56
2021/09/23 04:19:14;;;;;;;1.80;1.23;;;22.20;51.40;;;;;;4139337;28;19989;-54
2021/09/23 04:21:16;;;;;;;3.45;1.80;;;;;;;;;;4105521;28;20056;-53
2021/09/23 04:23:18;;;;;;;3.00;1.88;;;22.30;51.50;;;;;;4109892;28;20048;-57
2021/09/23 04:25:21;;;;;;;3.85;1.70;;;22.40;51.80;;;;;;4105131;28;20068;-55
2021/09/23 04:27:23;;;;;;;3.22;1.67;;;22.50;51.30;;;;;;4109819;28;20194;-48
2021/09/23 04:29:25;;;;;;;2.65;1.45;;;;;;;;;;4109098;28;20056;-48
2021/09/23 04:31:27;;;;;;;1.88;1.45;;;;;;;;;;4107922;28;20057;-52
2021/09/23 04:33:29;;;;;;;2.70;1.35;;;;;;;;;;4108780;28;20144;-50
2021/09/23 04:35:31;;;;;;;2.35;1.40;;;;;;;;;;4107038;28;20084;-52
2021/09/23 04:37:34;;;;;;;;;;;;;;;;;;4108361;28;20088;-57
2021/09/23 04:39:36;;;;;;;4.45;1.95;;;;;;;;;;4106795;28;19955;-54
2021/09/23 04:41:38;;;;;;;3.13;2.05;;;;;;;;;;4108596;28;20110;-52
2021/09/23 04:43:41;;;;;;;3.53;1.70;;;;;;;;;;4106730;28;20056;-48
2021/09/23 04:45:43;;;;;;;6.05;2.10;;;;;;;;;;4107861;28;20139;-49
2021/09/23 04:47:46;;;;;;;3.05;1.95;;;;;;;;;;4107174;28;20151;-54
2021/09/23 04:49:48;;;;;;;4.97;2.15;;;;;;;;;;4106728;28;20147;-52
2021/09/23 04:51:50;;;;;;;6.78;2.10;;;;;;;;;;4105351;28;20484;-52
2021/09/23 04:53:52;;;;;;;4.88;2.67;;;;;;;;;;4109406;28;21789;-54
2021/09/23 04:55:54;;;;;;;11.27;2.55;;;;;;;;;;4108345;28;20047;-56
2021/09/23 04:57:58;;;;;;;4.57;2.00;;;;;;;;;;4106865;28;20307;-53
2021/09/23 05:02:12;;;;;;;5.63;2.70;;;23.30;51.60;;;;;;4146798;27;20469;-57
2021/09/23 05:04:15;;;;;;;7.35;2.50;;;23.30;52.10;;;;;;4145850;28;20979;-56
2021/09/23 05:06:17;;;;;;;;;;;23.40;51.90;;;;;;4147197;28;20129;-56
2021/09/23 05:08:19;;;;;;;4.65;2.17;;;23.40;52.00;;;;;;4146049;28;21439;-56
2021/09/23 05:10:21;;;;;;;5.33;2.10;;;23.50;51.80;;;;;;4144758;28;20047;-56
2021/09/23 05:12:24;;;;;;;3.65;2.05;;;23.50;51.70;;;;;;4130733;28;20469;-52
2021/09/23 05:14:29;;;;;;;4.38;2.10;;;23.60;51.80;;;;;;4134552;28;20053;-57
2021/09/23 05:16:31;;;;;;;4.40;2.50;;;23.60;51.90;;;;;;4131162;28;20096;-54
2021/09/23 05:18:33;;;;;;;5.25;2.08;;;23.70;51.90;;;;;;4127994;28;20665;-48
2021/09/23 05:20:35;;;;;;;5.75;2.85;;;23.70;51.90;;;;;;4134168;28;20067;-55
2021/09/23 05:22:38;;;;;;;5.13;2.93;;;23.80;52.10;;;;;;4133270;28;20049;-52
2021/09/23 05:24:40;;;;;;;8.00;3.20;;;23.80;52.10;;;;;;4134136;28;20110;-53
2021/09/23 05:26:45;;;;;;;4.27;2.50;;;23.90;52.20;;;;;;4129887;28;20191;-51
2021/09/23 05:28:47;;;;;;;3.28;2.03;;;24.00;51.50;;;;;;4132563;28;20930;-54
2021/09/23 05:30:50;;;;;;;4.00;2.25;;;24.00;49.40;;;;;;4132938;28;20044;-52
2021/09/23 05:32:53;;;;;;;6.82;2.63;;;24.00;48.80;;;;;;4131977;28;20167;-54
2021/09/23 05:34:55;;;;;;;3.45;2.03;;;24.10;48.50;;;;;;4130083;28;20917;-52
2021/09/23 05:36:57;;;;;;;6.47;2.17;;;24.10;48.10;;;;;;4150173;28;21638;-51
2021/09/23 05:39:00;;;;;;;2.88;1.90;;;24.10;48.30;;;;;;4133305;28;20048;-56
2021/09/23 05:41:02;;;;;;;2.38;1.77;;;24.10;47.40;;;;;;4131404;28;20339;-52
2021/09/23 05:43:04;;;;;;;3.30;1.95;;;24.20;47.20;;;;;;4133649;28;20438;-55
2021/09/23 05:45:11;;;;;;;6.05;2.30;;;24.20;47.10;;;;;;4114268;28;20892;-51
2021/09/23 05:47:13;;;;;;;4.20;1.85;;;24.20;46.80;;;;;;4131104;28;20146;-52
2021/09/23 05:49:18;;;;;;;4.45;2.20;;;24.20;46.60;;;;;;4133576;28;20073;-52
2021/09/23 05:51:20;;;;;;;3.08;1.85;;;24.30;46.40;;;;;;4132629;28;20570;-52
2021/09/23 05:53:22;;;;;;;2.70;1.80;;;24.30;46.40;;;;;;4133508;28;20114;-53
2021/09/23 05:55:25;;;;;;;3.72;1.98;;;24.30;46.10;;;;;;4131772;28;21966;-51
2021/09/23 05:57:33;;;;;;;6.38;2.30;;;24.30;46.10;;;;;;4135469;28;20814;-53
2021/09/23 05:59:35;;;;;;;7.80;2.30;;;24.40;46.60;;;;;;4131309;28;20605;-47
2021/09/23 06:01:37;;;;;;;6.18;2.00;;;24.40;48.80;;;;;;4129200;28;20071;-51
2021/09/23 06:03:39;;;;;;;2.70;1.80;;;24.40;51.10;;;;;;4133709;28;20052;-50
2021/09/23 06:05:41;;;;;;;2.83;1.70;;;24.50;52.50;;;;;;4130685;28;21463;-51
2021/09/23 06:07:46;;;;;;;3.83;2.00;;;24.60;52.10;;;;;;4131439;28;20053;-52
2021/09/23 06:09:48;;;;;;;5.00;2.90;;;24.60;51.70;;;;;;4130913;28;20059;-48
2021/09/23 06:11:50;;;;;;;5.32;2.15;;;24.70;52.80;;;;;;4126697;28;20048;-57
2021/09/23 06:13:52;;;;;;;3.97;2.23;;;24.70;52.70;;;;;;4140253;28;20497;-57
2021/09/23 06:15:55;;;;;;;4.97;2.00;;;24.80;53.10;;;;;;4120061;28;22424;-52
2021/09/23 06:17:57;;;;;;;4.82;2.40;;;24.80;53.90;;;;;;4115314;28;20982;-52
2021/09/23 06:20:00;;;;;;;6.32;2.45;;;24.90;54.40;;;;;;4114436;28;21005;-57
2021/09/23 06:22:03;;;;;;;3.72;2.15;;;25.00;54.20;;;;;;4104956;28;20048;-55
2021/09/23 06:24:07;;;;;;;4.80;2.15;;;25.10;54.60;;;;;;4122698;28;20867;-58
2021/09/23 06:26:19;;;;;;;5.00;2.03;;;25.10;56.00;;;;;;4124243;28;20056;-49
2021/09/23 06:28:24;;;;;;;4.38;2.05;;;25.20;54.10;;;;;;4123882;28;20083;-52
2021/09/23 06:30:30;;;;;;;5.88;2.58;;;25.30;54.30;;;;;;4125447;28;20053;-54
2021/09/23 06:32:33;;;;;;;6.75;2.25;;;25.30;54.00;;;;;;4108801;28;20056;-54
2021/09/23 06:34:48;;;;;;;3.10;2.00;;;25.40;54.00;;;;;;4123184;28;20052;-59
2021/09/23 06:36:51;;;;;;;3.88;2.35;;;25.40;54.20;;;;;;4105290;28;20880;-54
2021/09/23 06:38:54;;;;;;;3.05;2.00;;;25.50;53.80;;;;;;4126496;28;20151;-57
2021/09/23 06:40:57;;;;;;;4.18;2.20;;;25.60;54.10;;;;;;4124145;28;20367;-52
2021/09/23 06:42:59;;;;;;;3.05;2.17;;;25.60;54.40;;;;;;4126266;28;20056;-53
2021/09/23 06:45:02;;;;;;;3.90;2.75;;;25.70;52.30;;;;;;4132082;28;21351;-55
2021/09/23 06:47:08;;;;;;;4.53;2.38;;;25.70;51.30;;;;;;4131286;28;20389;-53
2021/09/23 06:49:11;;;;;;;4.25;2.70;;;25.70;51.00;;;;;;4131180;28;20064;-49
2021/09/23 06:51:16;;;;;;;5.95;2.70;;;25.70;51.00;;;;;;4133830;28;20041;-57
2021/09/23 06:53:18;;;;;;;4.85;2.67;;;25.80;51.80;;;;;;4129182;28;22422;-57
2021/09/23 06:55:22;;;;;;;3.78;2.90;;;25.80;51.40;;;;;;4132715;28;21731;-54
2021/09/23 06:57:25;;;;;;;5.50;3.15;;;25.90;51.40;;;;;;4121236;28;20513;-56
2021/09/23 06:59:27;;;;;;;5.53;3.20;;;25.90;51.60;;;;;;4125562;28;20637;-52
2021/09/23 07:01:30;;;;;;;5.00;3.50;;;26.00;50.60;;;;;;4124381;28;20057;-56
2021/09/23 07:03:36;;;;;;;6.75;3.65;;;26.00;50.10;;;;;;4118707;28;20074;-53
2021/09/23 07:05:48;;;;;;;4.32;3.17;;;26.00;50.00;;;;;;4124848;28;21479;-58
2021/09/23 07:07:51;;;;;;;5.00;3.20;;;26.00;49.60;;;;;;4123660;28;20044;-58
2021/09/23 07:10:00;;;;;;;3.50;2.60;;;26.00;49.10;;;;;;4125304;28;20968;-57
2021/09/23 07:12:05;;;;;;;4.50;2.95;;;26.00;48.70;;;;;;4123481;28;20053;-51
2021/09/23 07:14:08;;;;;;;4.57;2.92;;;26.00;48.40;;;;;;4125021;28;20051;-56
2021/09/23 07:16:16;;;;;;;4.40;3.22;;;26.00;49.00;;;;;;4121645;28;20049;-55
2021/09/23 07:18:25;;;;;;;3.60;2.45;;;26.00;48.10;;;;;;4128733;28;20079;-51
2021/09/23 07:20:28;;;;;;;4.28;2.50;;;26.00;48.00;;;;;;4125393;28;20684;-52
2021/09/23 07:22:31;;;;;;;4.15;3.00;;;26.00;48.00;;;;;;4128722;28;20100;-59
2021/09/23 07:24:42;;;;;;;5.55;3.60;;;26.00;48.00;;;;;;4124574;28;20049;-54
2021/09/23 07:26:45;;;;;;;4.45;3.72;;;25.90;48.40;;;;;;4119756;28;20171;-54
2021/09/23 07:28:50;;;;;;;5.30;4.20;;;26.00;48.70;;;;;;4119119;28;20048;-55
2021/09/23 07:30:54;;;;;;;5.47;4.22;;;26.00;48.70;;;;;;4119876;28;20239;-57
2021/09/23 07:32:55;;;;;;;;;;;25.90;48.60;;;;;;4117747;28;21065;-67
2021/09/23 07:34:58;;;;;;;5.10;4.13;;;25.90;48.40;;;;;;4117011;28;19928;-65
2021/09/23 07:37:04;;;;;;;5.15;4.18;;;25.90;48.20;;;;;;4117811;28;20095;-71
2021/09/23 07:39:15;;;;;;;5.85;3.90;;;26.00;48.10;;;;;;4112857;28;21296;-65
2021/09/23 07:41:20;;;;;;;4.97;3.85;;;25.90;47.80;;;;;;4116563;28;20591;-67
2021/09/23 07:43:29;;;;;;;4.38;3.50;;;25.90;47.80;;;;;;4114508;28;20052;-67
2021/09/23 07:45:35;;;;;;;5.57;3.80;;;25.90;47.60;;;;;;4116645;28;20106;-67
2021/09/23 07:47:43;;;;;;;4.97;3.63;;;25.90;47.50;;;;;;4112924;28;21456;-66
2021/09/23 07:50:01;;;;;;;4.28;3.40;;;25.80;47.30;;;;;;4133530;28;20059;-71
2021/09/23 07:52:08;;;;;;;4.32;3.10;;;25.90;47.30;;;;;;4117616;28;20087;-66
2021/09/23 07:54:15;;;;;;;3.90;2.78;;;25.80;47.20;;;;;;4114669;28;20049;-67
2021/09/23 07:56:30;;;;;;;3.38;2.53;;;25.80;47.10;;;;;;4115597;28;20056;-68
2021/09/23 07:58:35;;;;;;;4.32;2.90;;;25.80;47.10;;;;;;4117176;28;20055;-70
2021/09/23 08:12:36;;;;;;;3.60;2.60;;;25.80;46.50;;;;;;4000436;27;4056416;-63
2021/09/23 08:14:48;;;;;;;4.00;2.40;;;25.90;47.80;;;;;;4150261;28;20304;-64
2021/09/23 08:16:53;;;;;;;3.33;2.45;;;25.90;47.80;;;;;;4150954;28;20055;-67
2021/09/23 08:19:02;;;;;;;3.15;2.30;;;25.90;47.90;;;;;;4128670;28;20054;-66
2021/09/23 08:21:07;;;;;;;2.42;2.10;;;25.90;47.90;;;;;;4129206;28;20051;-70
2021/09/23 08:23:25;;;;;;;10.85;2.47;;;25.90;48.00;;;;;;4115583;28;20556;-72
2021/09/23 08:25:32;;;;;;;2.58;2.30;;;25.90;48.00;;;;;;4128829;28;20522;-68
2021/09/23 08:27:35;;;;;;;2.92;2.30;;;25.90;47.80;;;;;;4131423;28;21563;-67
2021/09/23 08:29:47;;;;;;;4.18;2.35;;;25.90;47.90;;;;;;4132010;28;20067;-66
2021/09/23 08:31:53;;;;;;;4.00;1.98;;;25.80;47.80;;;;;;4129286;28;20068;-69
2021/09/23 08:33:56;;;;;;;3.65;2.35;;;25.90;47.90;;;;;;4145563;28;20047;-67
2021/09/23 08:36:02;;;;;;;3.95;2.22;;;25.90;48.00;;;;;;4149278;28;20184;-72
2021/09/23 08:38:09;;;;;;;4.70;2.83;;;25.90;48.20;;;;;;4150364;28;20882;-69
2021/09/23 08:40:40;;;;;;;4.05;2.70;;;25.90;48.20;;;;;;4112450;28;20049;-70
2021/09/23 08:42:46;;;;;;;3.40;2.70;;;25.80;48.40;;;;;;4070587;28;21629;-66
2021/09/23 08:44:59;;;;;;;5.95;2.63;;;25.90;48.40;;;;;;4109211;28;20278;-67
2021/09/23 08:47:02;;;;;;;8.73;2.95;;;25.90;48.10;;;;;;4115824;28;20512;-65
2021/09/23 08:49:10;;;;;;;4.60;3.00;;;25.90;48.20;;;;;;4099163;28;22004;-71
2021/09/23 08:51:17;;;;;;;3.97;3.10;;;25.90;48.20;;;;;;4100697;28;20045;-69
2021/09/23 08:53:19;;;;;;;5.47;3.00;;;25.90;48.20;;;;;;4113475;28;20130;-71
2021/09/23 08:55:34;;;;;;;4.18;2.95;;;25.90;48.20;;;;;;4115292;28;20684;-63
2021/09/23 08:57:44;;;;;;;;;;;25.80;48.20;;;;;;4114795;28;20071;-64
2021/09/23 08:59:47;;;;;;;14.98;3.63;;;25.90;48.40;;;;;;4116353;28;19986;-62
2021/09/23 09:01:50;;;;;;;;;;;25.80;48.30;;;;;;4099612;28;20053;-64
2021/09/23 09:04:04;;;;;;;5.95;3.22;;;25.80;48.30;;;;;;4099857;28;20642;-61
2021/09/23 09:06:11;;;;;;;4.53;2.80;;;25.80;48.40;;;;;;4100227;28;20558;-68
2021/09/23 09:08:20;;;;;;;9.93;3.53;;;25.80;47.80;;;;;;4099643;28;20194;-63
2021/09/23 09:12:45;;;;;;;4.68;2.78;;;25.80;48.20;;;;;;3214804;26;22498;-65
2021/09/23 09:14:49;;;;;;;5.80;2.58;;;25.80;48.00;;;;;;4089854;28;20792;-70
2021/09/23 09:16:59;;;;;;;5.38;2.28;;;25.80;48.20;;;;;;4073456;28;20054;-67
2021/09/23 09:19:06;;;;;;;5.07;2.25;;;25.70;48.30;;;;;;4089336;28;20140;-71
2021/09/23 09:21:12;;;;;;;3.25;2.42;;;25.70;48.40;;;;;;4093442;28;20053;-69
2021/09/23 09:23:14;;;;;;;2.83;1.88;;;25.70;48.40;;;;;;4074365;28;20058;-68
2021/09/23 09:25:17;;;;;;;1.95;1.77;;;25.70;48.40;;;;;;4078524;28;21444;-65
2021/09/23 09:27:49;;;;;;;1.95;1.65;;;25.70;48.40;;;;;;4093777;28;20556;-67
2021/09/23 09:29:57;;;;;;;2.53;1.85;;;25.70;48.60;;;;;;4092037;28;20155;-66
2021/09/23 09:31:59;;;;;;;1.70;1.60;;;25.70;48.70;;;;;;4090524;28;20091;-67
2021/09/23 09:34:04;;;;;;;1.53;1.40;;;25.70;48.80;;;;;;4092144;28;20053;-65
2021/09/23 09:36:25;;;;;;;2.28;1.80;;;25.70;48.90;;;;;;4074079;28;20062;-66
2021/09/23 09:38:30;;;;;;;2.40;1.80;;;25.70;48.90;;;;;;4058238;28;20050;-75
2021/09/23 09:40:38;;;;;;;3.38;2.20;;;25.70;49.00;;;;;;4075042;28;20313;-71
2021/09/23 09:42:51;;;;;;;3.05;1.95;;;25.70;49.00;;;;;;4073526;28;20787;-67
2021/09/23 09:45:00;;;;;;;2.38;1.92;;;25.70;49.10;;;;;;4074421;28;20161;-66
2021/09/23 09:47:03;;;;;;;2.88;2.17;;;25.70;49.20;;;;;;4074446;28;20112;-69
2021/09/23 09:49:05;;;;;;;2.88;2.10;;;25.70;49.20;;;;;;4089836;28;20057;-67
2021/09/23 09:51:10;;;;;;;2.93;2.00;;;25.70;49.20;;;;;;4089229;28;21244;-65
2021/09/23 09:53:17;;;;;;;3.05;2.10;;;25.70;49.20;;;;;;4090212;28;20314;-65
2021/09/23 09:55:23;;;;;;;5.25;2.42;;;25.70;49.40;;;;;;4073831;28;20132;-64
2021/09/23 09:57:28;;;;;;;3.58;2.38;;;25.70;49.50;;;;;;4073177;28;21076;-69
2021/09/23 09:59:31;;;;;;;3.00;2.40;;;25.70;49.40;;;;;;4090504;28;20049;-66
2021/09/23 10:01:34;;;;;;;2.75;2.22;;;25.70;49.40;;;;;;4074506;28;20118;-68
2021/09/23 10:03:37;;;;;;;5.55;2.42;;;25.70;49.40;;;;;;4089941;28;21070;-72
2021/09/23 10:05:43;;;;;;;4.40;2.50;;;25.70;49.60;;;;;;4090469;28;20053;-67
2021/09/23 10:07:48;;;;;;;3.70;2.30;;;25.70;49.60;;;;;;4060330;28;20199;-67
2021/09/23 10:09:51;;;;;;;4.45;2.60;;;25.70;49.70;;;;;;4094347;28;21094;-66
2021/09/23 10:11:56;;;;;;;;;;;25.70;49.80;;;;;;4071756;28;20254;-71
2021/09/23 10:14:02;;;;;;;3.45;2.50;;;25.70;49.90;;;;;;4073490;28;19988;-68
2021/09/23 10:16:04;;;;;;;3.72;2.72;;;25.70;49.90;;;;;;4075025;28;20938;-69
2021/09/23 10:18:07;;;;;;;3.20;2.50;;;25.60;49.90;;;;;;4072480;28;20053;-65
2021/09/23 10:20:12;;;;;;;3.72;2.60;;;25.60;50.70;;;;;;4073743;28;21109;-71
2021/09/23 10:22:15;;;;;;;4.60;2.70;;;25.60;49.80;;;;;;4071251;28;20077;-68
2021/09/23 10:24:17;;;;;;;;;;;25.60;49.60;;;;;;4073485;28;21663;-63
2021/09/23 10:26:24;;;;;;;7.40;2.92;;;25.60;49.90;;;;;;4075644;28;21344;-70
2021/09/23 10:28:27;;;;;;;3.95;2.65;;;25.60;50.10;;;;;;4073444;28;20088;-65
2021/09/23 10:30:36;;;;;;;4.90;2.40;;;25.60;50.20;;;;;;4075856;28;21417;-65
2021/09/23 10:32:38;;;;;;;13.13;2.92;;;25.60;50.10;;;;;;4072658;28;20645;-67
2021/09/23 10:34:43;;;;;;;3.67;2.70;;;25.60;50.10;;;;;;4074287;28;20136;-66
2021/09/23 10:36:45;;;;;;;3.38;2.47;;;25.60;50.10;;;;;;4073790;28;21306;-66
2021/09/23 10:38:48;;;;;;;4.32;2.30;;;25.60;50.10;;;;;;4076379;28;20448;-66
2021/09/23 10:40:51;;;;;;;3.33;2.40;;;25.60;49.90;;;;;;4071614;28;20112;-66
2021/09/23 10:42:59;;;;;;;4.38;2.70;;;25.60;50.00;;;;;;4074272;28;20293;-64
2021/09/23 10:45:04;;;;;;;3.75;2.60;;;25.60;50.00;;;;;;4074546;28;20475;-67
2021/09/23 10:47:07;;;;;;;4.20;2.60;;;25.50;49.90;;;;;;4073436;28;20213;-67
2021/09/23 10:49:10;;;;;;;5.30;2.90;;;25.50;49.90;;;;;;4077113;28;20057;-72
2021/09/23 10:51:17;;;;;;;3.58;2.70;;;25.50;49.90;;;;;;4058090;28;21926;-71
2021/09/23 10:53:20;;;;;;;3.25;2.50;;;25.50;49.90;;;;;;4077410;28;20054;-71
2021/09/23 10:55:23;;;;;;;;;;;25.50;49.90;;;;;;4072068;28;20586;-67
2021/09/23 10:57:28;;;;;;;4.57;2.55;;;25.50;49.90;;;;;;4076071;28;19991;-72
2021/09/23 10:59:33;;;;;;;4.20;2.70;;;25.50;49.90;;;;;;4072032;28;20050;-66
2021/09/23 11:19:11;;;;;;;3.97;2.50;;;25.60;49.70;;;;;;4989076;23;2552336;-69
2021/09/23 11:21:14;;;;;;;4.15;2.60;;;25.60;49.70;;;;;;5095030;23;20032;-72
2021/09/23 11:23:19;;;;;;;3.53;2.83;;;25.50;49.60;;;;;;5068424;23;20055;-65
2021/09/23 11:25:24;;;;;;;3.63;2.88;;;25.50;49.70;;;;;;5094811;23;20035;-66
2021/09/23 11:27:27;;;;;;;4.13;2.70;;;25.50;49.70;;;;;;5067261;23;20029;-64
2021/09/23 11:29:31;;;;;;;3.47;2.63;;;25.50;49.60;;;;;;5071563;23;20028;-66